EDDM/MUC METAR and TAF weather

Enter ICAO airport designator
Station Type Date Time Source
EDDM METAR 2021/09/23 23:20 UTC NOAA

EDDM 232320Z 25006KT CAVOK 11/10 Q1019 NOSIG


Station Type Date Time Source
EDDM Decoded METAR 2021/09/23 23:20 UTC NOAA

Munchen, Germany (EDDM) 48-21N 011-47E
Sep 23, 2021 - 07:20 PM EDT / 2021.09.23 2320 UTC
Wind: from the WSW (250 degrees) at 7 MPH (6 KT):0
Visibility: greater than 7 mile(s):0
Temperature: 51 F (11 C)
Dew Point: 50 F (10 C)
Relative Humidity: 93%
Pressure (altimeter): 30.09 in. Hg (1019 hPa)
ob: EDDM 232320Z 25006KT CAVOK 11/10 Q1019 NOSIG
cycle: 23

Station Type Date Time Source
EDDM TAF 2021/09/23 18:27 UTC NOAA

TAF EDDM 231700Z 2318/2424 25007KT CAVOK
BECMG 2415/2417 VRB02KT

Example: see airport list